sensor_id;sensor_type;location;lat;lon;timestamp;P1;durP1;ratioP1;P2;durP2;ratioP2
22646;SDS011;11490;42.726;23.268;2022-08-23T00:01:53;15.82;;;9.45;;
22646;SDS011;11490;42.726;23.268;2022-08-23T00:04:21;20.20;;;10.15;;
22646;SDS011;11490;42.726;23.268;2022-08-23T00:06:49;19.35;;;9.52;;
22646;SDS011;11490;42.726;23.268;2022-08-23T00:09:17;18.80;;;9.48;;
22646;SDS011;11490;42.726;23.268;2022-08-23T00:12:06;21.05;;;10.43;;
22646;SDS011;11490;42.726;23.268;2022-08-23T00:14:36;20.02;;;9.85;;
22646;SDS011;11490;42.726;23.268;2022-08-23T00:17:04;21.80;;;9.85;;
22646;SDS011;11490;42.726;23.268;2022-08-23T00:19:33;20.25;;;9.65;;
22646;SDS011;11490;42.726;23.268;2022-08-23T00:21:58;18.10;;;10.15;;
22646;SDS011;11490;42.726;23.268;2022-08-23T00:24:24;13.50;;;8.10;;
22646;SDS011;11490;42.726;23.268;2022-08-23T00:26:51;20.45;;;10.57;;
22646;SDS011;11490;42.726;23.268;2022-08-23T00:29:21;17.38;;;9.75;;
22646;SDS011;11490;42.726;23.268;2022-08-23T00:31:48;17.25;;;8.95;;
22646;SDS011;11490;42.726;23.268;2022-08-23T00:34:14;18.38;;;11.00;;
22646;SDS011;11490;42.726;23.268;2022-08-23T00:36:39;19.02;;;9.75;;
22646;SDS011;11490;42.726;23.268;2022-08-23T00:39:05;21.98;;;10.63;;
22646;SDS011;11490;42.726;23.268;2022-08-23T00:41:32;18.65;;;11.07;;
22646;SDS011;11490;42.726;23.268;2022-08-23T00:43:59;21.02;;;10.73;;
22646;SDS011;11490;42.726;23.268;2022-08-23T00:49:30;17.48;;;10.20;;
22646;SDS011;11490;42.726;23.268;2022-08-23T00:52:10;17.85;;;10.25;;
22646;SDS011;11490;42.726;23.268;2022-08-23T00:54:37;24.23;;;11.75;;
22646;SDS011;11490;42.726;23.268;2022-08-23T00:57:07;18.83;;;10.30;;
22646;SDS011;11490;42.726;23.268;2022-08-23T00:59:34;19.13;;;10.68;;
22646;SDS011;11490;42.726;23.268;2022-08-23T01:02:00;19.73;;;10.88;;
22646;SDS011;11490;42.726;23.268;2022-08-23T01:04:26;20.55;;;10.35;;
22646;SDS011;11490;42.726;23.268;2022-08-23T01:07:02;19.00;;;10.30;;
22646;SDS011;11490;42.726;23.268;2022-08-23T01:09:32;20.98;;;9.45;;
22646;SDS011;11490;42.726;23.268;2022-08-23T01:12:31;17.83;;;10.18;;
22646;SDS011;11490;42.726;23.268;2022-08-23T01:15:03;19.52;;;9.73;;
22646;SDS011;11490;42.726;23.268;2022-08-23T01:17:41;19.15;;;9.52;;
22646;SDS011;11490;42.726;23.268;2022-08-23T01:20:17;25.08;;;11.52;;
22646;SDS011;11490;42.726;23.268;2022-08-23T01:22:51;22.70;;;11.70;;
22646;SDS011;11490;42.726;23.268;2022-08-23T01:25:19;21.08;;;11.27;;
22646;SDS011;11490;42.726;23.268;2022-08-23T01:27:47;19.48;;;10.43;;
22646;SDS011;11490;42.726;23.268;2022-08-23T01:30:16;20.00;;;12.52;;
22646;SDS011;11490;42.726;23.268;2022-08-23T01:32:46;26.67;;;12.57;;
22646;SDS011;11490;42.726;23.268;2022-08-23T01:35:14;26.13;;;11.98;;
22646;SDS011;11490;42.726;23.268;2022-08-23T01:37:40;24.17;;;12.82;;
22646;SDS011;11490;42.726;23.268;2022-08-23T01:40:06;20.30;;;11.18;;
22646;SDS011;11490;42.726;23.268;2022-08-23T01:42:32;19.63;;;11.77;;
22646;SDS011;11490;42.726;23.268;2022-08-23T01:44:58;20.38;;;11.68;;
22646;SDS011;11490;42.726;23.268;2022-08-23T01:47:23;22.42;;;11.32;;
22646;SDS011;11490;42.726;23.268;2022-08-23T01:49:49;20.85;;;11.57;;
22646;SDS011;11490;42.726;23.268;2022-08-23T01:52:14;14.52;;;8.52;;
22646;SDS011;11490;42.726;23.268;2022-08-23T01:54:40;16.33;;;9.27;;
22646;SDS011;11490;42.726;23.268;2022-08-23T01:57:06;18.48;;;9.68;;
22646;SDS011;11490;42.726;23.268;2022-08-23T01:59:31;14.70;;;9.43;;
22646;SDS011;11490;42.726;23.268;2022-08-23T02:01:57;19.52;;;8.63;;
22646;SDS011;11490;42.726;23.268;2022-08-23T02:04:23;11.85;;;7.82;;
22646;SDS011;11490;42.726;23.268;2022-08-23T02:06:49;18.60;;;9.00;;
22646;SDS011;11490;42.726;23.268;2022-08-23T02:09:15;14.23;;;9.00;;
22646;SDS011;11490;42.726;23.268;2022-08-23T02:11:41;18.42;;;8.88;;
22646;SDS011;11490;42.726;23.268;2022-08-23T02:14:08;14.40;;;8.77;;
22646;SDS011;11490;42.726;23.268;2022-08-23T02:16:38;13.85;;;8.57;;
22646;SDS011;11490;42.726;23.268;2022-08-23T02:19:08;14.38;;;9.10;;
22646;SDS011;11490;42.726;23.268;2022-08-23T02:21:35;16.25;;;9.13;;
22646;SDS011;11490;42.726;23.268;2022-08-23T02:24:10;14.38;;;8.50;;
22646;SDS011;11490;42.726;23.268;2022-08-23T02:26:40;13.85;;;7.97;;
22646;SDS011;11490;42.726;23.268;2022-08-23T02:29:12;14.75;;;8.80;;
22646;SDS011;11490;42.726;23.268;2022-08-23T02:31:38;21.15;;;8.63;;
22646;SDS011;11490;42.726;23.268;2022-08-23T02:34:04;18.25;;;8.45;;
22646;SDS011;11490;42.726;23.268;2022-08-23T02:36:30;15.75;;;9.20;;
22646;SDS011;11490;42.726;23.268;2022-08-23T02:38:56;22.88;;;8.85;;
22646;SDS011;11490;42.726;23.268;2022-08-23T02:41:22;13.13;;;7.95;;
22646;SDS011;11490;42.726;23.268;2022-08-23T02:43:50;13.75;;;8.40;;
22646;SDS011;11490;42.726;23.268;2022-08-23T02:46:16;15.90;;;7.55;;
22646;SDS011;11490;42.726;23.268;2022-08-23T02:48:42;16.02;;;7.93;;
22646;SDS011;11490;42.726;23.268;2022-08-23T02:51:08;17.27;;;9.40;;
22646;SDS011;11490;42.726;23.268;2022-08-23T02:53:33;13.15;;;8.55;;
22646;SDS011;11490;42.726;23.268;2022-08-23T02:55:59;14.75;;;9.38;;
22646;SDS011;11490;42.726;23.268;2022-08-23T02:58:25;14.68;;;9.10;;
22646;SDS011;11490;42.726;23.268;2022-08-23T03:00:51;13.60;;;8.35;;
22646;SDS011;11490;42.726;23.268;2022-08-23T03:03:17;14.95;;;9.60;;
22646;SDS011;11490;42.726;23.268;2022-08-23T03:05:45;16.77;;;9.90;;
22646;SDS011;11490;42.726;23.268;2022-08-23T03:08:12;18.65;;;10.13;;
22646;SDS011;11490;42.726;23.268;2022-08-23T03:10:41;15.98;;;8.23;;
22646;SDS011;11490;42.726;23.268;2022-08-23T03:13:10;16.35;;;10.00;;
22646;SDS011;11490;42.726;23.268;2022-08-23T03:15:36;18.33;;;9.90;;
22646;SDS011;11490;42.726;23.268;2022-08-23T03:18:02;18.00;;;9.30;;
22646;SDS011;11490;42.726;23.268;2022-08-23T03:20:28;19.02;;;9.23;;
22646;SDS011;11490;42.726;23.268;2022-08-23T03:22:54;18.08;;;9.85;;
22646;SDS011;11490;42.726;23.268;2022-08-23T03:25:19;13.70;;;8.48;;
22646;SDS011;11490;42.726;23.268;2022-08-23T03:27:45;15.68;;;9.07;;
22646;SDS011;11490;42.726;23.268;2022-08-23T03:30:11;15.40;;;9.52;;
22646;SDS011;11490;42.726;23.268;2022-08-23T03:32:36;16.20;;;9.57;;
22646;SDS011;11490;42.726;23.268;2022-08-23T03:35:02;14.63;;;7.63;;
22646;SDS011;11490;42.726;23.268;2022-08-23T03:37:28;19.33;;;9.50;;
22646;SDS011;11490;42.726;23.268;2022-08-23T03:39:53;11.10;;;7.65;;
22646;SDS011;11490;42.726;23.268;2022-08-23T03:42:18;16.63;;;9.07;;
22646;SDS011;11490;42.726;23.268;2022-08-23T03:44:44;12.55;;;7.30;;
22646;SDS011;11490;42.726;23.268;2022-08-23T03:47:09;12.98;;;7.97;;
22646;SDS011;11490;42.726;23.268;2022-08-23T03:49:35;12.80;;;8.23;;
22646;SDS011;11490;42.726;23.268;2022-08-23T03:52:03;22.15;;;7.72;;
22646;SDS011;11490;42.726;23.268;2022-08-23T03:54:30;11.70;;;7.13;;
22646;SDS011;11490;42.726;23.268;2022-08-23T03:56:57;12.00;;;7.03;;
22646;SDS011;11490;42.726;23.268;2022-08-23T03:59:24;10.35;;;6.18;;
22646;SDS011;11490;42.726;23.268;2022-08-23T04:01:52;13.32;;;8.60;;
22646;SDS011;11490;42.726;23.268;2022-08-23T04:04:19;15.60;;;9.93;;
22646;SDS011;11490;42.726;23.268;2022-08-23T04:06:44;11.65;;;7.88;;
22646;SDS011;11490;42.726;23.268;2022-08-23T04:09:11;12.75;;;8.90;;
22646;SDS011;11490;42.726;23.268;2022-08-23T04:11:37;13.25;;;7.68;;
22646;SDS011;11490;42.726;23.268;2022-08-23T04:14:03;8.95;;;6.35;;
22646;SDS011;11490;42.726;23.268;2022-08-23T04:16:30;10.98;;;6.38;;
22646;SDS011;11490;42.726;23.268;2022-08-23T04:19:02;9.48;;;6.57;;
22646;SDS011;11490;42.726;23.268;2022-08-23T04:21:28;9.27;;;6.57;;
22646;SDS011;11490;42.726;23.268;2022-08-23T04:23:54;10.38;;;6.75;;
22646;SDS011;11490;42.726;23.268;2022-08-23T04:26:20;12.25;;;6.63;;
22646;SDS011;11490;42.726;23.268;2022-08-23T04:28:46;14.20;;;7.40;;
22646;SDS011;11490;42.726;23.268;2022-08-23T04:31:11;16.23;;;9.05;;
22646;SDS011;11490;42.726;23.268;2022-08-23T04:33:37;18.17;;;10.38;;
22646;SDS011;11490;42.726;23.268;2022-08-23T04:36:02;20.65;;;11.15;;
22646;SDS011;11490;42.726;23.268;2022-08-23T04:38:28;17.70;;;11.73;;
22646;SDS011;11490;42.726;23.268;2022-08-23T04:40:54;19.95;;;11.60;;
22646;SDS011;11490;42.726;23.268;2022-08-23T04:43:39;16.83;;;11.15;;
22646;SDS011;11490;42.726;23.268;2022-08-23T04:46:05;16.15;;;10.23;;
22646;SDS011;11490;42.726;23.268;2022-08-23T04:48:30;19.55;;;11.45;;
22646;SDS011;11490;42.726;23.268;2022-08-23T04:50:56;19.58;;;11.18;;
22646;SDS011;11490;42.726;23.268;2022-08-23T04:53:22;20.38;;;11.05;;
22646;SDS011;11490;42.726;23.268;2022-08-23T04:55:47;25.88;;;11.57;;
22646;SDS011;11490;42.726;23.268;2022-08-23T04:58:16;21.17;;;11.00;;
22646;SDS011;11490;42.726;23.268;2022-08-23T05:00:42;18.08;;;11.35;;
22646;SDS011;11490;42.726;23.268;2022-08-23T05:03:07;21.52;;;10.95;;
22646;SDS011;11490;42.726;23.268;2022-08-23T05:05:33;17.73;;;10.73;;
22646;SDS011;11490;42.726;23.268;2022-08-23T05:07:58;14.95;;;9.60;;
22646;SDS011;11490;42.726;23.268;2022-08-23T05:10:24;18.85;;;11.70;;
22646;SDS011;11490;42.726;23.268;2022-08-23T05:12:49;17.98;;;10.18;;
22646;SDS011;11490;42.726;23.268;2022-08-23T05:15:15;17.67;;;10.15;;
22646;SDS011;11490;42.726;23.268;2022-08-23T05:17:40;16.75;;;10.25;;
22646;SDS011;11490;42.726;23.268;2022-08-23T05:20:06;18.85;;;11.13;;
22646;SDS011;11490;42.726;23.268;2022-08-23T05:22:33;20.77;;;11.65;;
22646;SDS011;11490;42.726;23.268;2022-08-23T05:25:00;20.13;;;11.13;;
22646;SDS011;11490;42.726;23.268;2022-08-23T05:27:25;17.42;;;10.32;;
22646;SDS011;11490;42.726;23.268;2022-08-23T05:29:50;16.40;;;10.68;;
22646;SDS011;11490;42.726;23.268;2022-08-23T05:32:18;17.73;;;10.93;;
22646;SDS011;11490;42.726;23.268;2022-08-23T05:34:44;16.42;;;11.32;;
22646;SDS011;11490;42.726;23.268;2022-08-23T05:37:10;17.45;;;10.98;;
22646;SDS011;11490;42.726;23.268;2022-08-23T05:39:35;21.33;;;13.20;;
22646;SDS011;11490;42.726;23.268;2022-08-23T05:42:01;23.90;;;12.35;;
22646;SDS011;11490;42.726;23.268;2022-08-23T05:44:27;18.33;;;10.73;;
22646;SDS011;11490;42.726;23.268;2022-08-23T05:46:53;17.33;;;11.10;;
22646;SDS011;11490;42.726;23.268;2022-08-23T05:49:18;23.30;;;11.35;;
22646;SDS011;11490;42.726;23.268;2022-08-23T05:51:43;18.70;;;11.32;;
22646;SDS011;11490;42.726;23.268;2022-08-23T05:54:09;20.48;;;12.50;;
22646;SDS011;11490;42.726;23.268;2022-08-23T05:56:39;18.35;;;11.43;;
22646;SDS011;11490;42.726;23.268;2022-08-23T05:59:07;17.92;;;10.73;;
22646;SDS011;11490;42.726;23.268;2022-08-23T06:01:35;19.20;;;11.32;;
22646;SDS011;11490;42.726;23.268;2022-08-23T06:04:02;19.48;;;11.10;;
22646;SDS011;11490;42.726;23.268;2022-08-23T06:06:30;24.40;;;11.05;;
22646;SDS011;11490;42.726;23.268;2022-08-23T06:08:56;20.08;;;11.15;;
22646;SDS011;11490;42.726;23.268;2022-08-23T06:11:22;18.67;;;10.55;;
22646;SDS011;11490;42.726;23.268;2022-08-23T06:13:51;17.15;;;10.20;;
22646;SDS011;11490;42.726;23.268;2022-08-23T06:16:19;20.17;;;10.10;;
22646;SDS011;11490;42.726;23.268;2022-08-23T06:18:47;23.60;;;10.27;;
22646;SDS011;11490;42.726;23.268;2022-08-23T06:21:15;14.85;;;9.50;;
22646;SDS011;11490;42.726;23.268;2022-08-23T06:23:43;20.45;;;10.50;;
22646;SDS011;11490;42.726;23.268;2022-08-23T06:26:13;16.88;;;9.18;;
22646;SDS011;11490;42.726;23.268;2022-08-23T06:28:50;15.70;;;9.25;;
22646;SDS011;11490;42.726;23.268;2022-08-23T06:31:18;23.27;;;9.18;;
22646;SDS011;11490;42.726;23.268;2022-08-23T06:34:05;16.65;;;9.27;;
22646;SDS011;11490;42.726;23.268;2022-08-23T06:36:31;14.70;;;9.27;;
22646;SDS011;11490;42.726;23.268;2022-08-23T06:38:57;13.35;;;8.48;;
22646;SDS011;11490;42.726;23.268;2022-08-23T06:41:23;19.92;;;8.50;;
22646;SDS011;11490;42.726;23.268;2022-08-23T06:43:49;13.95;;;8.70;;
22646;SDS011;11490;42.726;23.268;2022-08-23T06:46:19;11.98;;;7.88;;
22646;SDS011;11490;42.726;23.268;2022-08-23T06:48:46;15.20;;;8.35;;
22646;SDS011;11490;42.726;23.268;2022-08-23T06:51:23;12.05;;;7.78;;
22646;SDS011;11490;42.726;23.268;2022-08-23T06:53:51;14.75;;;8.25;;
22646;SDS011;11490;42.726;23.268;2022-08-23T06:56:19;16.35;;;7.53;;
22646;SDS011;11490;42.726;23.268;2022-08-23T06:58:46;12.57;;;7.88;;
22646;SDS011;11490;42.726;23.268;2022-08-23T07:01:12;13.10;;;8.13;;
22646;SDS011;11490;42.726;23.268;2022-08-23T07:03:45;15.30;;;8.00;;
22646;SDS011;11490;42.726;23.268;2022-08-23T07:06:11;11.98;;;7.70;;
22646;SDS011;11490;42.726;23.268;2022-08-23T07:08:36;15.55;;;7.47;;
22646;SDS011;11490;42.726;23.268;2022-08-23T07:11:02;14.25;;;7.45;;
22646;SDS011;11490;42.726;23.268;2022-08-23T07:13:27;13.70;;;7.75;;
22646;SDS011;11490;42.726;23.268;2022-08-23T07:15:59;12.32;;;7.38;;
22646;SDS011;11490;42.726;23.268;2022-08-23T07:18:25;14.10;;;7.57;;
22646;SDS011;11490;42.726;23.268;2022-08-23T07:20:57;14.52;;;8.32;;
22646;SDS011;11490;42.726;23.268;2022-08-23T07:23:24;11.38;;;7.32;;
22646;SDS011;11490;42.726;23.268;2022-08-23T07:25:51;10.27;;;6.90;;
22646;SDS011;11490;42.726;23.268;2022-08-23T07:28:17;12.38;;;6.65;;
22646;SDS011;11490;42.726;23.268;2022-08-23T07:30:42;12.15;;;7.45;;
22646;SDS011;11490;42.726;23.268;2022-08-23T07:33:08;13.35;;;7.22;;
22646;SDS011;11490;42.726;23.268;2022-08-23T07:35:33;13.63;;;7.85;;
22646;SDS011;11490;42.726;23.268;2022-08-23T07:37:59;10.07;;;6.72;;
22646;SDS011;11490;42.726;23.268;2022-08-23T07:40:25;13.15;;;7.35;;
22646;SDS011;11490;42.726;23.268;2022-08-23T07:42:51;9.75;;;6.47;;
22646;SDS011;11490;42.726;23.268;2022-08-23T07:45:20;10.63;;;6.45;;
22646;SDS011;11490;42.726;23.268;2022-08-23T07:47:56;12.05;;;7.22;;
22646;SDS011;11490;42.726;23.268;2022-08-23T07:51:11;13.70;;;6.78;;
22646;SDS011;11490;42.726;23.268;2022-08-23T07:53:38;9.75;;;6.28;;
22646;SDS011;11490;42.726;23.268;2022-08-23T07:56:10;10.02;;;6.05;;
22646;SDS011;11490;42.726;23.268;2022-08-23T07:58:36;10.68;;;6.13;;
22646;SDS011;11490;42.726;23.268;2022-08-23T08:01:14;10.02;;;6.45;;
22646;SDS011;11490;42.726;23.268;2022-08-23T08:03:45;10.52;;;6.22;;
22646;SDS011;11490;42.726;23.268;2022-08-23T08:09:54;11.77;;;8.48;;
22646;SDS011;11490;42.726;23.268;2022-08-23T08:12:19;13.90;;;7.75;;
22646;SDS011;11490;42.726;23.268;2022-08-23T08:14:47;9.85;;;6.70;;
22646;SDS011;11490;42.726;23.268;2022-08-23T08:17:15;12.07;;;7.45;;
22646;SDS011;11490;42.726;23.268;2022-08-23T08:19:50;10.50;;;6.68;;
22646;SDS011;11490;42.726;23.268;2022-08-23T08:22:15;8.88;;;6.00;;
22646;SDS011;11490;42.726;23.268;2022-08-23T08:24:41;10.63;;;6.38;;
22646;SDS011;11490;42.726;23.268;2022-08-23T08:27:06;10.13;;;6.38;;
22646;SDS011;11490;42.726;23.268;2022-08-23T08:29:32;10.45;;;6.50;;
22646;SDS011;11490;42.726;23.268;2022-08-23T08:32:06;11.57;;;6.18;;
22646;SDS011;11490;42.726;23.268;2022-08-23T08:34:51;9.75;;;6.40;;
22646;SDS011;11490;42.726;23.268;2022-08-23T08:37:52;9.57;;;6.60;;
22646;SDS011;11490;42.726;23.268;2022-08-23T08:49:49;11.98;;;7.07;;
22646;SDS011;11490;42.726;23.268;2022-08-23T08:55:31;13.48;;;8.18;;
22646;SDS011;11490;42.726;23.268;2022-08-23T08:58:06;13.63;;;8.30;;
22646;SDS011;11490;42.726;23.268;2022-08-23T09:00:41;11.13;;;7.13;;
22646;SDS011;11490;42.726;23.268;2022-08-23T09:03:14;14.82;;;8.23;;
22646;SDS011;11490;42.726;23.268;2022-08-23T09:18:23;13.18;;;7.53;;
22646;SDS011;11490;42.726;23.268;2022-08-23T09:20:56;12.57;;;7.68;;
22646;SDS011;11490;42.726;23.268;2022-08-23T09:23:46;13.50;;;7.88;;
22646;SDS011;11490;42.726;23.268;2022-08-23T09:26:29;15.35;;;8.43;;
22646;SDS011;11490;42.726;23.268;2022-08-23T09:28:58;15.75;;;7.85;;
22646;SDS011;11490;42.726;23.268;2022-08-23T09:31:38;16.70;;;8.65;;
22646;SDS011;11490;42.726;23.268;2022-08-23T09:34:42;14.45;;;7.45;;
22646;SDS011;11490;42.726;23.268;2022-08-23T09:37:15;11.10;;;7.55;;
22646;SDS011;11490;42.726;23.268;2022-08-23T09:39:50;10.38;;;6.57;;
22646;SDS011;11490;42.726;23.268;2022-08-23T09:45:32;13.35;;;7.38;;
22646;SDS011;11490;42.726;23.268;2022-08-23T09:48:03;9.40;;;6.50;;
22646;SDS011;11490;42.726;23.268;2022-08-23T09:50:31;14.82;;;7.35;;
22646;SDS011;11490;42.726;23.268;2022-08-23T09:53:07;10.73;;;5.90;;
22646;SDS011;11490;42.726;23.268;2022-08-23T09:55:39;12.43;;;6.75;;
22646;SDS011;11490;42.726;23.268;2022-08-23T10:01:18;10.40;;;5.57;;
22646;SDS011;11490;42.726;23.268;2022-08-23T10:04:22;13.95;;;6.18;;
22646;SDS011;11490;42.726;23.268;2022-08-23T10:06:54;7.60;;;4.97;;
22646;SDS011;11490;42.726;23.268;2022-08-23T10:11:56;6.57;;;4.43;;
22646;SDS011;11490;42.726;23.268;2022-08-23T10:14:22;9.65;;;6.03;;
22646;SDS011;11490;42.726;23.268;2022-08-23T10:19:40;10.63;;;6.30;;
22646;SDS011;11490;42.726;23.268;2022-08-23T10:22:28;7.50;;;5.28;;
22646;SDS011;11490;42.726;23.268;2022-08-23T10:25:16;10.38;;;6.07;;
22646;SDS011;11490;42.726;23.268;2022-08-23T10:31:04;10.48;;;6.13;;
22646;SDS011;11490;42.726;23.268;2022-08-23T10:36:28;12.98;;;6.50;;
22646;SDS011;11490;42.726;23.268;2022-08-23T10:39:03;9.88;;;5.20;;
22646;SDS011;11490;42.726;23.268;2022-08-23T10:47:35;9.55;;;5.18;;
22646;SDS011;11490;42.726;23.268;2022-08-23T10:50:12;8.02;;;5.65;;
22646;SDS011;11490;42.726;23.268;2022-08-23T10:55:26;9.10;;;5.63;;
22646;SDS011;11490;42.726;23.268;2022-08-23T10:58:04;10.75;;;5.78;;
22646;SDS011;11490;42.726;23.268;2022-08-23T11:00:32;9.18;;;5.10;;
22646;SDS011;11490;42.726;23.268;2022-08-23T11:09:07;8.48;;;5.65;;
22646;SDS011;11490;42.726;23.268;2022-08-23T11:14:31;7.70;;;5.40;;
22646;SDS011;11490;42.726;23.268;2022-08-23T11:17:07;8.63;;;5.97;;
22646;SDS011;11490;42.726;23.268;2022-08-23T11:30:48;9.20;;;5.40;;
22646;SDS011;11490;42.726;23.268;2022-08-23T11:38:14;11.10;;;5.90;;
22646;SDS011;11490;42.726;23.268;2022-08-23T11:40:54;8.35;;;5.45;;
22646;SDS011;11490;42.726;23.268;2022-08-23T11:43:26;10.63;;;6.43;;
22646;SDS011;11490;42.726;23.268;2022-08-23T11:46:12;9.30;;;5.13;;
22646;SDS011;11490;42.726;23.268;2022-08-23T11:48:39;6.35;;;4.00;;
22646;SDS011;11490;42.726;23.268;2022-08-23T11:54:00;10.43;;;3.83;;
22646;SDS011;11490;42.726;23.268;2022-08-23T11:56:46;7.60;;;4.57;;
22646;SDS011;11490;42.726;23.268;2022-08-23T12:02:24;6.68;;;3.70;;
22646;SDS011;11490;42.726;23.268;2022-08-23T12:07:43;5.22;;;3.55;;
22646;SDS011;11490;42.726;23.268;2022-08-23T12:10:57;6.20;;;3.75;;
22646;SDS011;11490;42.726;23.268;2022-08-23T12:25:18;6.13;;;3.53;;
22646;SDS011;11490;42.726;23.268;2022-08-23T12:28:24;5.63;;;3.85;;
22646;SDS011;11490;42.726;23.268;2022-08-23T12:33:49;6.78;;;3.05;;
22646;SDS011;11490;42.726;23.268;2022-08-23T12:39:23;7.80;;;3.63;;
22646;SDS011;11490;42.726;23.268;2022-08-23T12:42:08;10.80;;;3.90;;
22646;SDS011;11490;42.726;23.268;2022-08-23T12:44:40;5.30;;;3.38;;
22646;SDS011;11490;42.726;23.268;2022-08-23T12:47:10;6.20;;;3.67;;
22646;SDS011;11490;42.726;23.268;2022-08-23T12:49:40;5.10;;;3.03;;
22646;SDS011;11490;42.726;23.268;2022-08-23T12:52:07;5.47;;;3.72;;
22646;SDS011;11490;42.726;23.268;2022-08-23T12:54:40;6.03;;;3.53;;
22646;SDS011;11490;42.726;23.268;2022-08-23T12:57:11;6.22;;;3.67;;
22646;SDS011;11490;42.726;23.268;2022-08-23T13:02:38;8.48;;;3.58;;
22646;SDS011;11490;42.726;23.268;2022-08-23T13:05:11;6.50;;;3.20;;
22646;SDS011;11490;42.726;23.268;2022-08-23T13:07:51;6.97;;;4.15;;
22646;SDS011;11490;42.726;23.268;2022-08-23T13:10:17;4.38;;;3.15;;
22646;SDS011;11490;42.726;23.268;2022-08-23T13:12:43;6.63;;;3.55;;
22646;SDS011;11490;42.726;23.268;2022-08-23T13:15:09;6.68;;;4.13;;
22646;SDS011;11490;42.726;23.268;2022-08-23T13:17:36;5.30;;;3.17;;
22646;SDS011;11490;42.726;23.268;2022-08-23T13:20:12;7.47;;;3.30;;
22646;SDS011;11490;42.726;23.268;2022-08-23T13:22:54;7.20;;;3.80;;
22646;SDS011;11490;42.726;23.268;2022-08-23T13:25:25;6.60;;;3.42;;
22646;SDS011;11490;42.726;23.268;2022-08-23T13:27:55;4.72;;;3.00;;
22646;SDS011;11490;42.726;23.268;2022-08-23T13:30:26;8.63;;;4.10;;
22646;SDS011;11490;42.726;23.268;2022-08-23T13:44:03;4.95;;;3.35;;
22646;SDS011;11490;42.726;23.268;2022-08-23T13:46:16;15.32;;;8.88;;
22646;SDS011;11490;42.726;23.268;2022-08-23T13:48:46;8.38;;;4.60;;
22646;SDS011;11490;42.726;23.268;2022-08-23T13:51:31;11.30;;;6.50;;
22646;SDS011;11490;42.726;23.268;2022-08-23T13:54:04;11.23;;;6.80;;
22646;SDS011;11490;42.726;23.268;2022-08-23T14:01:49;5.47;;;3.33;;
22646;SDS011;11490;42.726;23.268;2022-08-23T14:04:15;5.43;;;3.78;;
22646;SDS011;11490;42.726;23.268;2022-08-23T14:06:40;6.97;;;3.22;;
22646;SDS011;11490;42.726;23.268;2022-08-23T14:09:05;8.48;;;4.93;;
22646;SDS011;11490;42.726;23.268;2022-08-23T14:11:31;6.03;;;4.18;;
22646;SDS011;11490;42.726;23.268;2022-08-23T14:13:58;5.75;;;3.97;;
22646;SDS011;11490;42.726;23.268;2022-08-23T14:16:25;5.55;;;3.08;;
22646;SDS011;11490;42.726;23.268;2022-08-23T14:18:53;5.72;;;3.47;;
22646;SDS011;11490;42.726;23.268;2022-08-23T14:21:19;7.95;;;4.63;;
22646;SDS011;11490;42.726;23.268;2022-08-23T14:23:44;7.68;;;4.13;;
22646;SDS011;11490;42.726;23.268;2022-08-23T14:26:10;9.75;;;4.72;;
22646;SDS011;11490;42.726;23.268;2022-08-23T14:28:41;7.50;;;4.95;;
22646;SDS011;11490;42.726;23.268;2022-08-23T14:31:08;6.90;;;4.35;;
22646;SDS011;11490;42.726;23.268;2022-08-23T14:33:34;7.20;;;5.05;;
22646;SDS011;11490;42.726;23.268;2022-08-23T14:36:00;8.60;;;5.50;;
22646;SDS011;11490;42.726;23.268;2022-08-23T14:38:26;7.68;;;4.80;;
22646;SDS011;11490;42.726;23.268;2022-08-23T14:40:55;9.00;;;5.22;;
22646;SDS011;11490;42.726;23.268;2022-08-23T14:43:23;16.73;;;5.38;;
22646;SDS011;11490;42.726;23.268;2022-08-23T14:45:48;10.77;;;5.38;;
22646;SDS011;11490;42.726;23.268;2022-08-23T14:48:14;10.63;;;5.63;;
22646;SDS011;11490;42.726;23.268;2022-08-23T14:50:41;8.95;;;5.57;;
22646;SDS011;11490;42.726;23.268;2022-08-23T14:53:06;10.00;;;5.63;;
22646;SDS011;11490;42.726;23.268;2022-08-23T14:55:32;8.50;;;5.10;;
22646;SDS011;11490;42.726;23.268;2022-08-23T14:57:58;7.85;;;4.80;;
22646;SDS011;11490;42.726;23.268;2022-08-23T15:00:24;7.22;;;4.30;;
22646;SDS011;11490;42.726;23.268;2022-08-23T15:02:49;9.20;;;4.30;;
22646;SDS011;11490;42.726;23.268;2022-08-23T15:05:15;7.82;;;3.55;;
22646;SDS011;11490;42.726;23.268;2022-08-23T15:07:40;5.53;;;3.65;;
22646;SDS011;11490;42.726;23.268;2022-08-23T15:10:06;6.85;;;3.47;;
22646;SDS011;11490;42.726;23.268;2022-08-23T15:12:33;6.47;;;3.85;;
22646;SDS011;11490;42.726;23.268;2022-08-23T15:15:02;5.28;;;3.63;;
22646;SDS011;11490;42.726;23.268;2022-08-23T15:17:29;6.18;;;3.58;;
22646;SDS011;11490;42.726;23.268;2022-08-23T15:19:54;9.43;;;3.50;;
22646;SDS011;11490;42.726;23.268;2022-08-23T15:22:19;10.27;;;3.80;;
22646;SDS011;11490;42.726;23.268;2022-08-23T15:24:45;11.10;;;3.95;;
22646;SDS011;11490;42.726;23.268;2022-08-23T15:27:11;7.25;;;4.10;;
22646;SDS011;11490;42.726;23.268;2022-08-23T15:29:36;7.50;;;4.35;;
22646;SDS011;11490;42.726;23.268;2022-08-23T15:32:02;6.55;;;3.95;;
22646;SDS011;11490;42.726;23.268;2022-08-23T15:34:28;6.50;;;3.80;;
22646;SDS011;11490;42.726;23.268;2022-08-23T15:36:53;7.50;;;4.05;;
22646;SDS011;11490;42.726;23.268;2022-08-23T15:39:18;10.68;;;3.92;;
22646;SDS011;11490;42.726;23.268;2022-08-23T15:41:44;10.23;;;3.85;;
22646;SDS011;11490;42.726;23.268;2022-08-23T15:44:10;6.60;;;3.90;;
22646;SDS011;11490;42.726;23.268;2022-08-23T15:46:35;6.20;;;3.97;;
22646;SDS011;11490;42.726;23.268;2022-08-23T15:49:03;9.50;;;4.05;;
22646;SDS011;11490;42.726;23.268;2022-08-23T15:51:35;6.05;;;4.38;;
22646;SDS011;11490;42.726;23.268;2022-08-23T15:54:00;11.82;;;4.30;;
22646;SDS011;11490;42.726;23.268;2022-08-23T15:56:29;8.15;;;4.30;;
22646;SDS011;11490;42.726;23.268;2022-08-23T15:58:58;7.45;;;4.88;;
22646;SDS011;11490;42.726;23.268;2022-08-23T16:01:24;8.27;;;5.63;;
22646;SDS011;11490;42.726;23.268;2022-08-23T16:03:52;7.38;;;4.75;;
22646;SDS011;11490;42.726;23.268;2022-08-23T16:06:18;7.50;;;3.63;;
22646;SDS011;11490;42.726;23.268;2022-08-23T16:08:44;6.68;;;3.85;;
22646;SDS011;11490;42.726;23.268;2022-08-23T16:11:13;5.70;;;3.47;;
22646;SDS011;11490;42.726;23.268;2022-08-23T16:14:02;7.38;;;4.72;;
22646;SDS011;11490;42.726;23.268;2022-08-23T16:16:29;10.00;;;5.15;;
22646;SDS011;11490;42.726;23.268;2022-08-23T16:18:58;10.73;;;5.50;;
22646;SDS011;11490;42.726;23.268;2022-08-23T16:21:25;8.93;;;5.45;;
22646;SDS011;11490;42.726;23.268;2022-08-23T16:23:52;8.55;;;4.97;;
22646;SDS011;11490;42.726;23.268;2022-08-23T16:26:20;7.75;;;4.72;;
22646;SDS011;11490;42.726;23.268;2022-08-23T16:28:49;11.45;;;5.82;;
22646;SDS011;11490;42.726;23.268;2022-08-23T16:31:17;10.75;;;5.35;;
22646;SDS011;11490;42.726;23.268;2022-08-23T16:33:42;8.93;;;5.03;;
22646;SDS011;11490;42.726;23.268;2022-08-23T16:36:08;7.53;;;4.50;;
22646;SDS011;11490;42.726;23.268;2022-08-23T16:38:34;7.80;;;4.45;;
22646;SDS011;11490;42.726;23.268;2022-08-23T16:41:00;5.38;;;3.67;;
22646;SDS011;11490;42.726;23.268;2022-08-23T16:43:26;10.60;;;3.55;;
22646;SDS011;11490;42.726;23.268;2022-08-23T16:45:51;5.18;;;3.58;;